TimeAST,TemperatureF,Dew PointF,Humidity,Sea Level PressureIn,VisibilityMPH,Wind Direction,Wind SpeedMPH,Gust SpeedMPH,PrecipitationIn,Events,Conditions,WindDirDegrees,DateUTC
12:00 AM,91.4,51.8,26,29.53,5.6,NNW,9.2,-,N/A,,Unknown,340,2013-06-02 21:00:00
1:00 AM,93.2,53.6,26,295.30,5.0,NW,10.4,-,N/A,,Unknown,320,2013-06-02 22:00:00
2:00 AM,89.6,60.8,38,29.50,5.0,WNW,11.5,-,N/A,,Unknown,300,2013-06-02 23:00:00
3:00 AM,89,63,32,29.53,5,NW,10.4,,,,Widespread Dust,310,2013-06-03 00:00:00
3:00 AM,89.6,62.6,40,29.50,5.0,NW,10.4,-,N/A,,Unknown,310,2013-06-03 00:00:00
3:30 AM,87.8,64.4,46,29.53,4.3,NW,11.5,-,N/A,,Unknown,310,2013-06-03 00:30:00
4:00 AM,87.8,64.4,46,29.53,4.3,NW,10.4,-,N/A,,Unknown,320,2013-06-03 01:00:00
4:30 AM,87.8,64.4,46,29.53,3.7,NW,12.7,24.2,N/A,,Unknown,310,2013-06-03 01:30:00
5:00 AM,87.8,66.2,49,29.53,3.1,NW,11.5,-,N/A,,Unknown,310,2013-06-03 02:00:00
6:00 AM,89.6,66.2,46,29.53,1.9,NW,10.4,-,N/A,,Unknown,310,2013-06-03 03:00:00
6:30 AM,89.6,66.2,46,29.56,1.9,WNW,10.4,-,N/A,,Unknown,300,2013-06-03 03:30:00
7:00 AM,89.6,68.0,49,29.56,1.9,WNW,10.4,-,N/A,,Unknown,300,2013-06-03 04:00:00
7:30 AM,89.6,66.2,46,29.56,1.9,WNW,11.5,-,N/A,,Unknown,300,2013-06-03 04:30:00
8:00 AM,93.2,62.6,36,29.56,1.9,WNW,11.5,-,N/A,,Unknown,300,2013-06-03 05:00:00
8:30 AM,95.0,62.6,34,29.59,1.9,WNW,8.1,-,N/A,,Unknown,290,2013-06-03 05:30:00
9:00 AM,95,58,20,29.59,2,NW,11.5,,,,Widespread Dust,320,2013-06-03 06:00:00
9:00 AM,95.0,59.0,30,29.59,1.9,NW,11.5,-,N/A,,Unknown,320,2013-06-03 06:00:00
9:30 AM,96.8,55.4,25,29.59,2.2,NW,12.7,-,N/A,,Unknown,320,2013-06-03 06:30:00
10:00 AM,96.8,55.4,25,29.56,2.5,NW,13.8,-,N/A,,Unknown,320,2013-06-03 07:00:00
10:30 AM,98.6,57.2,25,29.56,2.5,NW,10.4,-,N/A,,Unknown,320,2013-06-03 07:30:00
11:00 AM,100.4,53.6,21,29.56,2.8,NNW,11.5,-,N/A,,Unknown,330,2013-06-03 08:00:00
11:30 AM,100.4,57.2,24,29.56,2.8,North,11.5,-,N/A,,Unknown,360,2013-06-03 08:30:00
12:00 PM,102.2,53.6,20,29.53,2.5,North,13.8,-,N/A,,Unknown,10,2013-06-03 09:00:00
12:30 PM,96.8,68.0,39,29.53,2.5,NNE,13.8,-,N/A,,Unknown,30,2013-06-03 09:30:00
1:00 PM,96.8,64.4,34,29.53,2.5,NNE,13.8,-,N/A,,Unknown,20,2013-06-03 10:00:00
1:30 PM,96.8,64.4,34,29.53,2.5,NNE,15.0,-,N/A,,Unknown,20,2013-06-03 10:30:00
2:00 PM,96.8,66.2,37,29.50,2.5,North,12.7,-,N/A,,Unknown,10,2013-06-03 11:00:00
2:30 PM,96.8,68.0,39,29.50,2.5,North,16.1,-,N/A,,Unknown,10,2013-06-03 11:30:00
3:00 PM,95,69,32,29.52,2,North,17.3,,,,Widespread Dust,10,2013-06-03 12:00:00
3:00 PM,95.0,68.0,41,29.50,1.9,North,17.3,-,N/A,,Unknown,10,2013-06-03 12:00:00
3:30 PM,96.8,69.8,41,29.50,1.9,NNE,16.1,-,N/A,,Unknown,20,2013-06-03 12:30:00
4:00 PM,91.4,71.6,52,29.50,1.6,North,17.3,-,N/A,,Unknown,360,2013-06-03 13:00:00
4:30 PM,91.4,73.4,55,29.50,1.6,North,16.1,-,N/A,,Unknown,10,2013-06-03 13:30:00
5:00 PM,89.6,73.4,59,29.50,1.2,North,15.0,-,N/A,,Unknown,10,2013-06-03 14:00:00
5:30 PM,87.8,75.2,66,29.50,1.2,North,13.8,-,N/A,,Unknown,10,2013-06-03 14:30:00
6:00 PM,87.8,75.2,66,29.50,1.2,North,12.7,-,N/A,,Unknown,10,2013-06-03 15:00:00
7:00 PM,86.0,75.2,70,29.53,1.6,North,9.2,-,N/A,,Unknown,360,2013-06-03 16:00:00
7:30 PM,86.0,75.2,70,29.53,1.6,North,9.2,-,N/A,,Unknown,10,2013-06-03 16:30:00
8:00 PM,86.0,75.2,70,29.56,1.6,North,11.5,-,N/A,,Unknown,360,2013-06-03 17:00:00
9:00 PM,85,76,68,29.57,2,North,9.2,,,,Widespread Dust,0,2013-06-03 18:00:00
9:00 PM,84.2,75.2,74,29.56,2.2,North,9.2,-,N/A,,Unknown,360,2013-06-03 18:00:00
9:30 PM,84.2,77.0,79,29.56,2.2,North,8.1,-,N/A,,Unknown,10,2013-06-03 18:30:00
10:00 PM,84.2,77.0,79,29.56,2.2,North,9.2,-,N/A,,Unknown,360,2013-06-03 19:00:00
11:00 PM,84.2,77.0,79,29.56,3.1,North,6.9,-,N/A,,Unknown,360,2013-06-03 20:00:00
11:30 PM,82.4,77.0,84,29.56,3.1,North,6.9,-,N/A,,Unknown,10,2013-06-03 20:30:00